Time;durP1;ratioP1;P1;durP2;ratioP2;P2;SDS_P1;SDS_P2;PMS_P1;PMS_P2;Temp;Humidity;BMP_temperature;BMP_pressure;BME280_temperature;BME280_humidity;BME280_pressure;Samples;Min_cycle;Max_cycle;Signal;HPM_P1;HPM_P2
2022/07/19 00:01:49;;;;;;;;;;;;;;;;;;5116238;28;20438;-76
2022/07/19 00:04:14;;;;;;;;;;;;;;;;;;5115081;28;19912;-76
2022/07/19 00:06:39;;;;;;;;;;;;;;;;;;5114734;28;20255;-76
2022/07/19 00:09:05;;;;;;;;;;;;;;;;;;5097275;28;19915;-76
2022/07/19 00:11:30;;;;;;;;;;;;;;;;;;5097325;28;19911;-76
2022/07/19 00:13:55;;;;;;;;;;;;;;;;;;5115497;28;19916;-76
2022/07/19 00:16:21;;;;;;;;;;;;;;;;;;5115578;28;19923;-77
2022/07/19 00:18:46;;;;;;;;;;;;;;;;;;5115434;28;20286;-76
2022/07/19 00:21:11;;;;;;;;;;;;;;;;;;5114389;28;20003;-76
2022/07/19 00:23:36;;;;;;;;;;;;;;;;;;5115630;28;19923;-77
2022/07/19 00:26:02;;;;;;;;;;;;;;;;;;5115351;28;20369;-77
2022/07/19 00:28:27;;;;;;;;;;;;;;;;;;5114374;28;19972;-76
2022/07/19 00:30:53;;;;;;;;;;;;;;;;;;5115554;28;19919;-76
2022/07/19 00:33:18;;;;;;;;;;;;;;;;;;5114127;28;19912;-76
2022/07/19 00:35:43;;;;;;;;;;;;;;;;;;5115526;28;19911;-76
2022/07/19 00:38:10;;;;;;;;;;;;;;;;;;5115133;28;19955;-76
2022/07/19 00:40:36;;;;;;;;;;;;;;;;;;5114948;28;19916;-77
2022/07/19 00:43:01;;;;;;;;;;;;;;;;;;5096686;28;20004;-76
2022/07/19 00:45:26;;;;;;;;;;;;;;;;;;5115002;28;19920;-76
2022/07/19 00:47:52;;;;;;;;;;;;;;;;;;5114916;28;19923;-76
2022/07/19 00:50:17;;;;;;;;;;;;;;;;;;5113668;28;19923;-76
2022/07/19 00:52:43;;;;;;;;;;;;;;;;;;5113836;28;20427;-76
2022/07/19 00:55:09;;;;;;;;;;;;;;;;;;5114671;28;19919;-76
2022/07/19 00:57:34;;;;;;;;;;;;;;;;;;5114973;28;19938;-76
2022/07/19 00:59:59;;;;;;;;;;;;;;;;;;5113109;28;19992;-76
2022/07/19 01:02:24;;;;;;;;;;;;;;;;;;5112868;28;19916;-76
2022/07/19 01:04:50;;;;;;;;;;;;;;;;;;5113463;28;20314;-76
2022/07/19 01:07:15;;;;;;;;;;;;;;;;;;5113516;28;19981;-76
2022/07/19 01:09:41;;;;;;;;;;;;;;;;;;5113536;28;19923;-76
2022/07/19 01:12:06;;;;;;;;;;;;;;;;;;5113143;28;19916;-78
2022/07/19 01:14:31;;;;;;;;;;;;;;;;;;5114488;28;19955;-76
2022/07/19 01:16:58;;;;;;;;;;;;;;;;;;5114565;28;19951;-76
2022/07/19 01:19:24;;;;;;;;;;;;;;;;;;5113394;28;20358;-76
2022/07/19 01:21:49;;;;;;;;;;;;;;;;;;5113272;28;19922;-76
2022/07/19 01:24:14;;;;;;;;;;;;;;;;;;5114441;28;19916;-77
2022/07/19 01:26:39;;;;;;;;;;;;;;;;;;5114757;28;19972;-77
2022/07/19 01:29:05;;;;;;;;;;;;;;;;;;5112928;28;19923;-77
2022/07/19 01:31:30;;;;;;;;;;;;;;;;;;5096338;28;19955;-76
2022/07/19 01:33:55;;;;;;;;;;;;;;;;;;5112818;28;19961;-76
2022/07/19 01:36:20;;;;;;;;;;;;;;;;;;5114028;28;20430;-76
2022/07/19 01:38:46;;;;;;;;;;;;;;;;;;5114227;28;19919;-76
2022/07/19 01:41:11;;;;;;;;;;;;;;;;;;5113012;28;19923;-76
2022/07/19 01:43:36;;;;;;;;;;;;;;;;;;5113958;28;19947;-76
2022/07/19 01:46:02;;;;;;;;;;;;;;;;;;5114001;28;20277;-76
2022/07/19 01:48:27;;;;;;;;;;;;;;;;;;5113234;28;20396;-77
2022/07/19 01:50:53;;;;;;;;;;;;;;;;;;5114262;28;20027;-77
2022/07/19 01:53:18;;;;;;;;;;;;;;;;;;5113849;28;20365;-76
2022/07/19 01:55:43;;;;;;;;;;;;;;;;;;5112935;28;19926;-76
2022/07/19 01:58:08;;;;;;;;;;;;;;;;;;5113873;28;20313;-76
2022/07/19 02:00:34;;;;;;;;;;;;;;;;;;5112563;28;19924;-76
2022/07/19 02:02:59;;;;;;;;;;;;;;;;;;5113004;28;19995;-76
2022/07/19 02:05:24;;;;;;;;;;;;;;;;;;5114398;28;19916;-76
2022/07/19 02:07:49;;;;;;;;;;;;;;;;;;5112395;28;20031;-76
2022/07/19 02:10:15;;;;;;;;;;;;;;;;;;5113770;28;19960;-76
2022/07/19 02:12:40;;;;;;;;;;;;;;;;;;5112747;28;20397;-76
2022/07/19 02:15:06;;;;;;;;;;;;;;;;;;5117130;28;19923;-77
2022/07/19 02:17:31;;;;;;;;;;;;;;;;;;5116640;28;20365;-76
2022/07/19 02:19:56;;;;;;;;;;;;;;;;;;5116317;28;20362;-76
2022/07/19 02:22:22;;;;;;;;;;;;;;;;;;5117263;28;19922;-76
2022/07/19 02:24:47;;;;;;;;;;;;;;;;;;5117659;28;20002;-76
2022/07/19 02:27:12;;;;;;;;;;;;;;;;;;5116341;28;19923;-76
2022/07/19 02:29:38;;;;;;;;;;;;;;;;;;5117746;28;20400;-76
2022/07/19 02:32:03;;;;;;;;;;;;;;;;;;5116605;28;20016;-76
2022/07/19 02:34:28;;;;;;;;;;;;;;;;;;5117778;28;19916;-76
2022/07/19 02:36:53;;;;;;;;;;;;;;;;;;5117777;28;19916;-76
2022/07/19 02:39:19;;;;;;;;;;;;;;;;;;5117462;28;19951;-76
2022/07/19 02:41:44;;;;;;;;;;;;;;;;;;5117080;28;19916;-76
2022/07/19 02:44:10;;;;;;;;;;;;;;;;;;5116017;28;19915;-76
2022/07/19 02:46:35;;;;;;;;;;;;;;;;;;5117213;28;19915;-76
2022/07/19 02:49:00;;;;;;;;;;;;;;;;;;5117514;28;20023;-76
2022/07/19 02:51:25;;;;;;;;;;;;;;;;;;5117445;28;20285;-77
2022/07/19 02:53:51;;;;;;;;;;;;;;;;;;5098855;28;19972;-76
2022/07/19 02:56:16;;;;;;;;;;;;;;;;;;5116508;28;19960;-76
2022/07/19 02:58:41;;;;;;;;;;;;;;;;;;5117067;28;19927;-77
2022/07/19 03:01:08;;;;;;;;;;;;;;;;;;5115243;28;20499;-77
2022/07/19 03:03:43;;;;;;;;;;;;;;;;;;5117015;28;19954;-76
2022/07/19 03:06:09;;;;;;;;;;;;;;;;;;5099839;28;19912;-76
2022/07/19 03:08:34;;;;;;;;;;;;;;;;;;5115928;28;19918;-76
2022/07/19 03:10:59;;;;;;;;;;;;;;;;;;5116334;28;19999;-76
2022/07/19 03:13:24;;;;;;;;;;;;;;;;;;5116805;28;20347;-76
2022/07/19 03:15:50;;;;;;;;;;;;;;;;;;5098378;28;19916;-76
2022/07/19 03:18:15;;;;;;;;;;;;;;;;;;5115514;28;19918;-77
2022/07/19 03:20:40;;;;;;;;;;;;;;;;;;5115200;28;19930;-76
2022/07/19 03:23:05;;;;;;;;;;;;;;;;;;5116829;28;20341;-76
2022/07/19 03:25:31;;;;;;;;;;;;;;;;;;5114742;28;19915;-76
2022/07/19 03:27:56;;;;;;;;;;;;;;;;;;5115190;28;19916;-76
2022/07/19 03:30:21;;;;;;;;;;;;;;;;;;5116839;28;19916;-76
2022/07/19 03:32:47;;;;;;;;;;;;;;;;;;5116400;28;19926;-76
2022/07/19 03:35:12;;;;;;;;;;;;;;;;;;5116566;28;20002;-76
2022/07/19 03:37:38;;;;;;;;;;;;;;;;;;5097967;28;19911;-76
2022/07/19 03:40:04;;;;;;;;;;;;;;;;;;5116220;28;19956;-77
2022/07/19 03:42:29;;;;;;;;;;;;;;;;;;5114972;28;19978;-76
2022/07/19 03:44:54;;;;;;;;;;;;;;;;;;5116065;28;19915;-76
2022/07/19 03:47:20;;;;;;;;;;;;;;;;;;5115222;28;19915;-76
2022/07/19 03:49:45;;;;;;;;;;;;;;;;;;5116046;28;19920;-76
2022/07/19 03:52:11;;;;;;;;;;;;;;;;;;5114712;28;19927;-76
2022/07/19 03:54:36;;;;;;;;;;;;;;;;;;5115971;28;19922;-76
2022/07/19 03:57:01;;;;;;;;;;;;;;;;;;5114960;28;20004;-76
2022/07/19 03:59:27;;;;;;;;;;;;;;;;;;5114557;28;19970;-76
2022/07/19 04:01:52;;;;;;;;;;;;;;;;;;5115810;28;19919;-75
2022/07/19 04:04:17;;;;;;;;;;;;;;;;;;5114456;28;19916;-76
2022/07/19 04:06:42;;;;;;;;;;;;;;;;;;5114545;28;19911;-75
2022/07/19 04:09:08;;;;;;;;;;;;;;;;;;5114384;28;19922;-75
2022/07/19 04:11:33;;;;;;;;;;;;;;;;;;5114210;28;19912;-78
2022/07/19 04:13:58;;;;;;;;;;;;;;;;;;5114373;28;19911;-77
2022/07/19 04:16:23;;;;;;;;;;;;;;;;;;5115742;28;20251;-77
2022/07/19 04:18:49;;;;;;;;;;;;;;;;;;5116102;28;19916;-75
2022/07/19 04:21:14;;;;;;;;;;;;;;;;;;5115427;28;20014;-76
2022/07/19 04:23:39;;;;;;;;;;;;;;;;;;5114217;28;19912;-76
2022/07/19 04:26:04;;;;;;;;;;;;;;;;;;5115240;28;19923;-76
2022/07/19 04:28:30;;;;;;;;;;;;;;;;;;5115827;28;20366;-76
2022/07/19 04:30:55;;;;;;;;;;;;;;;;;;5096913;28;19938;-77
2022/07/19 04:33:20;;;;;;;;;;;;;;;;;;5114817;28;20293;-77
2022/07/19 04:35:46;;;;;;;;;;;;;;;;;;5113322;28;19947;-76
2022/07/19 04:38:11;;;;;;;;;;;;;;;;;;5112647;28;20010;-78
2022/07/19 04:40:36;;;;;;;;;;;;;;;;;;5114502;28;20015;-76
2022/07/19 04:43:01;;;;;;;;;;;;;;;;;;5113614;28;19927;-76
2022/07/19 04:45:27;;;;;;;;;;;;;;;;;;5113403;28;20267;-78
2022/07/19 04:47:53;;;;;;;;;;;;;;;;;;5113308;28;19912;-78
2022/07/19 04:50:18;;;;;;;;;;;;;;;;;;5113177;28;20392;-78
2022/07/19 04:52:43;;;;;;;;;;;;;;;;;;5113559;28;20357;-78
2022/07/19 04:55:09;;;;;;;;;;;;;;;;;;5096067;28;19969;-78
2022/07/19 04:57:34;;;;;;;;;;;;;;;;;;5114511;28;20034;-78
2022/07/19 05:00:00;;;;;;;;;;;;;;;;;;5114014;28;20433;-78
2022/07/19 05:02:25;;;;;;;;;;;;;;;;;;5114113;28;20282;-77
2022/07/19 05:04:51;;;;;;;;;;;;;;;;;;5113108;28;19990;-77
2022/07/19 05:07:16;;;;;;;;;;;;;;;;;;5114073;28;20262;-77
2022/07/19 05:09:42;;;;;;;;;;;;;;;;;;5112787;28;19924;-77
2022/07/19 05:12:09;;;;;;;;;;;;;;;;;;5112762;28;19912;-78
2022/07/19 05:14:34;;;;;;;;;;;;;;;;;;5114942;28;20262;-78
2022/07/19 05:16:59;;;;;;;;;;;;;;;;;;5114552;28;19919;-75
2022/07/19 05:19:25;;;;;;;;;;;;;;;;;;5114090;28;19912;-75
2022/07/19 05:21:50;;;;;;;;;;;;;;;;;;5114141;28;20462;-76
2022/07/19 05:24:16;;;;;;;;;;;;;;;;;;5112505;28;19918;-77
2022/07/19 05:26:41;;;;;;;;;;;;;;;;;;5095967;28;20277;-76
2022/07/19 05:29:06;;;;;;;;;;;;;;;;;;5112311;28;19950;-75
2022/07/19 05:31:32;;;;;;;;;;;;;;;;;;5112480;28;19928;-77
2022/07/19 05:33:57;;;;;;;;;;;;;;;;;;5112475;28;19981;-77
2022/07/19 05:36:23;;;;;;;;;;;;;;;;;;5113742;28;20342;-76
2022/07/19 05:38:48;;;;;;;;;;;;;;;;;;5113186;28;19916;-78
2022/07/19 05:41:15;;;;;;;;;;;;;;;;;;5112195;28;19960;-77
2022/07/19 05:43:41;;;;;;;;;;;;;;;;;;5095652;28;19992;-76
2022/07/19 05:46:06;;;;;;;;;;;;;;;;;;5112260;28;19927;-76
2022/07/19 05:48:31;;;;;;;;;;;;;;;;;;5113427;28;20340;-76
2022/07/19 05:50:57;;;;;;;;;;;;;;;;;;5095332;28;19916;-76
2022/07/19 05:53:22;;;;;;;;;;;;;;;;;;5112176;28;20370;-76
2022/07/19 05:55:48;;;;;;;;;;;;;;;;;;5112727;28;20330;-76
2022/07/19 05:58:13;;;;;;;;;;;;;;;;;;5095712;28;19919;-76
2022/07/19 06:01:17;;;;;;;;;;;;;;;;;;5113254;28;19934;-76
2022/07/19 06:03:24;;;;;;;;;;;;;;;;;;5112430;28;19999;-76
2022/07/19 06:05:49;;;;;;;;;;;;;;;;;;5113368;28;20350;-76
2022/07/19 06:08:14;;;;;;;;;;;;;;;;;;5112040;28;19998;-76
2022/07/19 06:10:39;;;;;;;;;;;;;;;;;;5113483;28;19927;-76
2022/07/19 06:13:05;;;;;;;;;;;;;;;;;;5113483;28;19923;-76
2022/07/19 06:15:30;;;;;;;;;;;;;;;;;;5113788;28;19915;-77
2022/07/19 06:17:55;;;;;;;;;;;;;;;;;;5113521;28;19911;-76
2022/07/19 06:20:20;;;;;;;;;;;;;;;;;;5113211;28;19924;-76
2022/07/19 06:22:46;;;;;;;;;;;;;;;;;;5112509;28;19916;-77
2022/07/19 06:25:11;;;;;;;;;;;;;;;;;;5113080;28;20412;-77
2022/07/19 06:27:36;;;;;;;;;;;;;;;;;;5112360;28;19918;-77
2022/07/19 06:30:02;;;;;;;;;;;;;;;;;;5113190;28;19916;-75
2022/07/19 06:32:27;;;;;;;;;;;;;;;;;;5113314;28;19926;-77
2022/07/19 06:34:54;;;;;;;;;;;;;;;;;;5094673;28;20045;-76
2022/07/19 06:37:19;;;;;;;;;;;;;;;;;;5111895;28;19923;-76
2022/07/19 06:39:44;;;;;;;;;;;;;;;;;;5111884;28;19924;-75
2022/07/19 06:42:10;;;;;;;;;;;;;;;;;;5113107;28;19965;-77
2022/07/19 06:44:35;;;;;;;;;;;;;;;;;;5094561;28;20006;-77
2022/07/19 06:47:00;;;;;;;;;;;;;;;;;;5111473;28;20354;-77
2022/07/19 06:49:26;;;;;;;;;;;;;;;;;;5094518;28;19912;-77
2022/07/19 06:51:51;;;;;;;;;;;;;;;;;;5094943;28;19970;-77
2022/07/19 06:54:17;;;;;;;;;;;;;;;;;;5111540;28;19960;-77
2022/07/19 06:56:42;;;;;;;;;;;;;;;;;;5111830;28;19912;-77
2022/07/19 06:59:07;;;;;;;;;;;;;;;;;;5094182;28;19923;-77
2022/07/19 07:01:32;;;;;;;;;;;;;;;;;;5114879;28;19989;-77
2022/07/19 07:03:58;;;;;;;;;;;;;;;;;;5116860;28;19918;-77
2022/07/19 07:06:23;;;;;;;;;;;;;;;;;;5117047;28;19979;-77
2022/07/19 07:08:48;;;;;;;;;;;;;;;;;;5115417;28;19912;-77
2022/07/19 07:11:13;;;;;;;;;;;;;;;;;;5116639;28;19928;-77
2022/07/19 07:13:39;;;;;;;;;;;;;;;;;;5116534;28;20379;-77
2022/07/19 07:16:04;;;;;;;;;;;;;;;;;;5117204;28;19922;-77
2022/07/19 07:18:29;;;;;;;;;;;;;;;;;;5118107;28;19939;-76
2022/07/19 07:20:55;;;;;;;;;;;;;;;;;;5116754;28;20211;-77
2022/07/19 07:23:22;;;;;;;;;;;;;;;;;;5114884;28;19916;-77
2022/07/19 07:25:48;;;;;;;;;;;;;;;;;;5114755;28;19915;-77
2022/07/19 07:28:13;;;;;;;;;;;;;;;;;;5115980;28;19916;-76
2022/07/19 07:30:38;;;;;;;;;;;;;;;;;;5114953;28;20371;-77
2022/07/19 07:33:03;;;;;;;;;;;;;;;;;;5116376;28;20413;-77
2022/07/19 07:35:29;;;;;;;;;;;;;;;;;;5114475;28;19912;-77
2022/07/19 07:37:54;;;;;;;;;;;;;;;;;;5115861;28;19920;-77
2022/07/19 07:40:19;;;;;;;;;;;;;;;;;;5116120;28;19920;-77
2022/07/19 07:42:45;;;;;;;;;;;;;;;;;;5115852;28;20358;-77
2022/07/19 07:45:10;;;;;;;;;;;;;;;;;;5097205;28;19912;-77
2022/07/19 07:47:36;;;;;;;;;;;;;;;;;;5097109;28;19922;-77
2022/07/19 07:50:01;;;;;;;;;;;;;;;;;;5114468;28;19916;-76
2022/07/19 07:52:26;;;;;;;;;;;;;;;;;;5114663;28;19965;-77
2022/07/19 07:54:52;;;;;;;;;;;;;;;;;;5117054;28;19919;-76
2022/07/19 07:57:18;;;;;;;;;;;;;;;;;;5115750;28;20057;-76
2022/07/19 07:59:43;;;;;;;;;;;;;;;;;;5114151;28;19927;-77
2022/07/19 08:02:08;;;;;;;;;;;;;;;;;;5114236;28;19919;-76
2022/07/19 08:04:34;;;;;;;;;;;;;;;;;;5114556;28;19912;-76
2022/07/19 08:06:59;;;;;;;;;;;;;;;;;;5114329;28;19923;-76
2022/07/19 08:09:24;;;;;;;;;;;;;;;;;;5114455;28;19954;-76
2022/07/19 08:11:50;;;;;;;;;;;;;;;;;;5096916;28;19945;-77
2022/07/19 08:14:15;;;;;;;;;;;;;;;;;;5114336;28;19911;-77
2022/07/19 08:16:40;;;;;;;;;;;;;;;;;;5115869;28;19942;-77
2022/07/19 08:19:06;;;;;;;;;;;;;;;;;;5097454;28;19912;-76
2022/07/19 08:21:31;;;;;;;;;;;;;;;;;;5115234;28;20278;-77
2022/07/19 08:23:56;;;;;;;;;;;;;;;;;;5115494;28;19920;-77
2022/07/19 08:26:22;;;;;;;;;;;;;;;;;;5114884;28;19957;-77
2022/07/19 08:28:48;;;;;;;;;;;;;;;;;;5114296;28;20358;-77
2022/07/19 08:31:14;;;;;;;;;;;;;;;;;;5114038;28;19916;-76
2022/07/19 08:33:40;;;;;;;;;;;;;;;;;;5096810;28;19991;-77
2022/07/19 08:36:05;;;;;;;;;;;;;;;;;;5113672;28;19916;-77
2022/07/19 08:38:31;;;;;;;;;;;;;;;;;;5113426;28;20060;-77
2022/07/19 08:40:56;;;;;;;;;;;;;;;;;;5114654;28;19919;-76
2022/07/19 08:43:22;;;;;;;;;;;;;;;;;;5113659;28;19922;-77
2022/07/19 08:45:47;;;;;;;;;;;;;;;;;;5113174;28;19965;-76
2022/07/19 08:48:13;;;;;;;;;;;;;;;;;;5113071;28;19916;-77
2022/07/19 08:50:38;;;;;;;;;;;;;;;;;;5114698;28;19922;-77
2022/07/19 08:53:04;;;;;;;;;;;;;;;;;;5115252;28;20337;-77
2022/07/19 08:55:30;;;;;;;;;;;;;;;;;;5113623;28;20362;-76
2022/07/19 08:58:00;;;;;;;;;;;;;;;;;;5095984;28;19912;-77
2022/07/19 09:00:25;;;;;;;;;;;;;;;;;;5112775;28;20035;-77
2022/07/19 09:03:09;;;;;;;;;;;;;;;;;;5095994;28;20425;-77
2022/07/19 09:05:34;;;;;;;;;;;;;;;;;;5112806;28;19966;-76
2022/07/19 09:08:02;;;;;;;;;;;;;;;;;;5096058;28;20281;-77
2022/07/19 09:10:27;;;;;;;;;;;;;;;;;;5095789;28;19916;-77
2022/07/19 09:13:03;;;;;;;;;;;;;;;;;;5112805;28;19967;-77
2022/07/19 09:15:38;;;;;;;;;;;;;;;;;;5113142;28;19972;-78
2022/07/19 09:18:08;;;;;;;;;;;;;;;;;;5095728;28;19933;-77
2022/07/19 09:20:33;;;;;;;;;;;;;;;;;;5095555;28;19916;-76
2022/07/19 09:22:58;;;;;;;;;;;;;;;;;;5112009;28;19915;-77
2022/07/19 09:25:37;;;;;;;;;;;;;;;;;;5095481;28;19935;-77
2022/07/19 09:28:03;;;;;;;;;;;;;;;;;;5112298;28;19912;-77
2022/07/19 09:30:32;;;;;;;;;;;;;;;;;;5112743;28;20362;-77
2022/07/19 09:33:07;;;;;;;;;;;;;;;;;;5112475;28;19912;-77
2022/07/19 09:35:35;;;;;;;;;;;;;;;;;;5112515;28;19995;-76
2022/07/19 09:38:13;;;;;;;;;;;;;;;;;;5095509;28;20368;-77
2022/07/19 09:40:39;;;;;;;;;;;;;;;;;;5112730;28;19938;-77
2022/07/19 09:43:04;;;;;;;;;;;;;;;;;;5114110;28;20322;-77
2022/07/19 09:45:32;;;;;;;;;;;;;;;;;;5112623;28;20396;-77
2022/07/19 09:47:57;;;;;;;;;;;;;;;;;;5114268;28;19911;-76
2022/07/19 09:50:22;;;;;;;;;;;;;;;;;;5113688;28;20014;-77
2022/07/19 09:52:48;;;;;;;;;;;;;;;;;;5112678;28;19916;-77
2022/07/19 09:55:14;;;;;;;;;;;;;;;;;;5113671;28;19964;-77
2022/07/19 09:57:42;;;;;;;;;;;;;;;;;;5113553;28;19916;-76
2022/07/19 10:00:08;;;;;;;;;;;;;;;;;;5111522;28;19923;-77
2022/07/19 10:02:34;;;;;;;;;;;;;;;;;;5113174;28;19920;-76
2022/07/19 10:04:59;;;;;;;;;;;;;;;;;;5112543;28;19919;-77
2022/07/19 10:07:25;;;;;;;;;;;;;;;;;;5112231;28;19916;-77
2022/07/19 10:09:50;;;;;;;;;;;;;;;;;;5112329;28;19961;-77
2022/07/19 10:12:15;;;;;;;;;;;;;;;;;;5094997;28;19982;-76
2022/07/19 10:14:41;;;;;;;;;;;;;;;;;;5094940;28;20023;-76
2022/07/19 10:17:18;;;;;;;;;;;;;;;;;;5095019;28;20349;-77
2022/07/19 10:19:45;;;;;;;;;;;;;;;;;;5113217;28;20349;-77
2022/07/19 10:22:14;;;;;;;;;;;;;;;;;;5113510;28;19918;-77
2022/07/19 10:24:43;;;;;;;;;;;;;;;;;;5111838;28;19911;-77
2022/07/19 10:27:08;;;;;;;;;;;;;;;;;;5113158;28;19918;-76
2022/07/19 10:29:34;;;;;;;;;;;;;;;;;;5111892;28;19911;-77
2022/07/19 10:32:03;;;;;;;;;;;;;;;;;;5112045;28;19919;-77
2022/07/19 10:34:28;;;;;;;;;;;;;;;;;;5112038;28;19995;-77
2022/07/19 10:36:55;;;;;;;;;;;;;;;;;;5115664;28;19947;-77
2022/07/19 10:39:21;;;;;;;;;;;;;;;;;;5115872;28;19912;-76
2022/07/19 10:42:19;;;;;;;;;;;;;;;;;;5116169;28;19922;-77
2022/07/19 10:44:56;;;;;;;;;;;;;;;;;;5104365;28;20447;-77
2022/07/19 10:47:21;;;;;;;;;;;;;;;;;;5115404;28;20337;-77
2022/07/19 10:49:47;;;;;;;;;;;;;;;;;;5116894;28;20078;-76
2022/07/19 10:52:28;;;;;;;;;;;;;;;;;;5115608;28;20254;-77
2022/07/19 10:55:12;;;;;;;;;;;;;;;;;;5116511;28;20357;-77
2022/07/19 10:57:37;;;;;;;;;;;;;;;;;;5116763;28;19935;-78
2022/07/19 11:00:23;;;;;;;;;;;;;;;;;;5114841;28;19923;-79
2022/07/19 11:02:49;;;;;;;;;;;;;;;;;;5105623;28;19958;-79
2022/07/19 11:05:24;;;;;;;;;;;;;;;;;;5098473;28;19916;-80
2022/07/19 11:07:50;;;;;;;;;;;;;;;;;;5098832;28;20272;-78
2022/07/19 11:10:22;;;;;;;;;;;;;;;;;;5098035;28;20009;-77
2022/07/19 11:12:48;;;;;;;;;;;;;;;;;;5098035;28;19926;-77
2022/07/19 11:15:13;;;;;;;;;;;;;;;;;;5115072;28;19916;-77
2022/07/19 11:17:38;;;;;;;;;;;;;;;;;;5115031;28;19922;-76
2022/07/19 11:20:07;;;;;;;;;;;;;;;;;;5114960;28;19916;-75
2022/07/19 11:22:38;;;;;;;;;;;;;;;;;;5116086;28;19947;-77
2022/07/19 11:25:04;;;;;;;;;;;;;;;;;;5116440;28;19951;-78
2022/07/19 11:27:29;;;;;;;;;;;;;;;;;;5115215;28;19916;-80
2022/07/19 11:29:55;;;;;;;;;;;;;;;;;;5114977;28;19930;-80
2022/07/19 11:32:21;;;;;;;;;;;;;;;;;;5114822;28;20362;-80
2022/07/19 11:34:53;;;;;;;;;;;;;;;;;;5116211;28;19976;-81
2022/07/19 11:37:28;;;;;;;;;;;;;;;;;;5097729;28;19912;-80
2022/07/19 11:39:54;;;;;;;;;;;;;;;;;;5114741;28;19922;-82
2022/07/19 11:42:34;;;;;;;;;;;;;;;;;;5114774;28;19915;-81
2022/07/19 11:45:06;;;;;;;;;;;;;;;;;;5116036;28;19970;-79
2022/07/19 11:47:33;;;;;;;;;;;;;;;;;;5097341;28;19962;-80
2022/07/19 11:50:02;;;;;;;;;;;;;;;;;;5114455;28;19918;-81
2022/07/19 11:52:28;;;;;;;;;;;;;;;;;;5114264;28;19911;-78
2022/07/19 11:54:58;;;;;;;;;;;;;;;;;;5114192;28;19922;-79
2022/07/19 11:57:24;;;;;;;;;;;;;;;;;;5098277;28;20372;-81
2022/07/19 11:59:49;;;;;;;;;;;;;;;;;;5097013;28;20044;-78
2022/07/19 12:02:14;;;;;;;;;;;;;;;;;;5114156;28;20010;-80
2022/07/19 12:04:39;;;;;;;;;;;;;;;;;;5114298;28;19923;-84
2022/07/19 12:07:05;;;;;;;;;;;;;;;;;;5115365;28;20076;-82
2022/07/19 12:09:33;;;;;;;;;;;;;;;;;;5116029;28;19915;-83
2022/07/19 12:11:59;;;;;;;;;;;;;;;;;;5114965;28;19916;-82
2022/07/19 12:14:24;;;;;;;;;;;;;;;;;;5114990;28;19922;-83
2022/07/19 12:16:50;;;;;;;;;;;;;;;;;;5115515;28;20247;-84
2022/07/19 12:19:20;;;;;;;;;;;;;;;;;;5114735;28;20002;-82
2022/07/19 12:21:45;;;;;;;;;;;;;;;;;;5099429;28;20086;-82
2022/07/19 12:24:14;;;;;;;;;;;;;;;;;;5113674;28;20025;-80
2022/07/19 12:26:41;;;;;;;;;;;;;;;;;;5113346;28;20403;-81
2022/07/19 12:29:16;;;;;;;;;;;;;;;;;;5113617;28;19918;-81
2022/07/19 12:31:45;;;;;;;;;;;;;;;;;;5114544;28;19923;-81
2022/07/19 12:34:11;;;;;;;;;;;;;;;;;;5115437;28;19916;-80
2022/07/19 12:36:36;;;;;;;;;;;;;;;;;;5113392;28;20449;-81
2022/07/19 12:39:02;;;;;;;;;;;;;;;;;;5113596;28;20274;-82
2022/07/19 12:41:27;;;;;;;;;;;;;;;;;;5096438;28;19916;-84
2022/07/19 12:43:52;;;;;;;;;;;;;;;;;;5115260;28;19987;-81
2022/07/19 12:46:17;;;;;;;;;;;;;;;;;;5114619;28;19916;-80
2022/07/19 12:48:43;;;;;;;;;;;;;;;;;;5114952;28;19923;-82
2022/07/19 12:51:08;;;;;;;;;;;;;;;;;;5096937;28;20370;-82
2022/07/19 12:53:33;;;;;;;;;;;;;;;;;;5114972;28;19919;-82
2022/07/19 12:55:59;;;;;;;;;;;;;;;;;;5096470;28;19915;-82
2022/07/19 13:01:12;;;;;;;;;;;;;;;;;;5075894;28;19928;-83
2022/07/19 13:03:38;;;;;;;;;;;;;;;;;;5114536;28;19923;-83
2022/07/19 13:06:04;;;;;;;;;;;;;;;;;;5117476;28;19915;-81
2022/07/19 13:08:29;;;;;;;;;;;;;;;;;;5118860;28;19922;-80
2022/07/19 13:10:55;;;;;;;;;;;;;;;;;;5115653;28;19994;-82
2022/07/19 13:13:20;;;;;;;;;;;;;;;;;;5114593;28;19911;-82
2022/07/19 13:15:45;;;;;;;;;;;;;;;;;;5098848;28;19922;-82
2022/07/19 13:18:12;;;;;;;;;;;;;;;;;;5116568;28;19973;-85
2022/07/19 13:20:37;;;;;;;;;;;;;;;;;;5114649;28;20011;-79
2022/07/19 13:23:02;;;;;;;;;;;;;;;;;;5115300;28;20350;-79
2022/07/19 13:25:27;;;;;;;;;;;;;;;;;;5114424;28;19916;-79
2022/07/19 13:27:53;;;;;;;;;;;;;;;;;;5113132;28;20014;-78
2022/07/19 13:30:18;;;;;;;;;;;;;;;;;;5114869;28;19984;-78
2022/07/19 13:32:43;;;;;;;;;;;;;;;;;;5113015;28;20006;-79
2022/07/19 13:35:09;;;;;;;;;;;;;;;;;;5114472;28;19916;-78
2022/07/19 13:37:34;;;;;;;;;;;;;;;;;;5113949;28;19926;-80
2022/07/19 13:39:59;;;;;;;;;;;;;;;;;;5112553;28;19982;-81
2022/07/19 13:42:24;;;;;;;;;;;;;;;;;;5114340;28;19980;-79
2022/07/19 13:44:50;;;;;;;;;;;;;;;;;;5114129;28;19915;-79
2022/07/19 13:47:15;;;;;;;;;;;;;;;;;;5113600;28;19916;-79
2022/07/19 13:49:40;;;;;;;;;;;;;;;;;;5114428;28;20344;-77
2022/07/19 13:52:06;;;;;;;;;;;;;;;;;;5095698;28;19912;-79
2022/07/19 13:54:31;;;;;;;;;;;;;;;;;;5095999;28;19981;-79
2022/07/19 13:56:56;;;;;;;;;;;;;;;;;;5095585;28;19918;-79
2022/07/19 13:59:22;;;;;;;;;;;;;;;;;;5112764;28;19920;-79
2022/07/19 14:01:47;;;;;;;;;;;;;;;;;;5114187;28;19924;-79
2022/07/19 14:04:12;;;;;;;;;;;;;;;;;;5113734;28;19955;-79
2022/07/19 14:06:38;;;;;;;;;;;;;;;;;;5112211;28;19911;-79
2022/07/19 14:09:03;;;;;;;;;;;;;;;;;;5115686;28;19987;-79
2022/07/19 14:11:29;;;;;;;;;;;;;;;;;;5118039;28;19921;-80
2022/07/19 14:13:54;;;;;;;;;;;;;;;;;;5099480;28;19912;-78
2022/07/19 14:16:19;;;;;;;;;;;;;;;;;;5117449;28;20385;-80
2022/07/19 14:18:44;;;;;;;;;;;;;;;;;;5116075;28;19946;-79
2022/07/19 14:21:10;;;;;;;;;;;;;;;;;;5117361;28;19924;-80
2022/07/19 14:23:35;;;;;;;;;;;;;;;;;;5116223;28;19922;-79
2022/07/19 14:26:01;;;;;;;;;;;;;;;;;;5116104;28;19922;-80
2022/07/19 14:28:26;;;;;;;;;;;;;;;;;;5117527;28;19915;-80
2022/07/19 14:30:51;;;;;;;;;;;;;;;;;;5116285;28;20018;-80
2022/07/19 14:33:17;;;;;;;;;;;;;;;;;;5098764;28;20219;-80
2022/07/19 14:35:42;;;;;;;;;;;;;;;;;;5117636;28;19966;-79
2022/07/19 14:38:07;;;;;;;;;;;;;;;;;;5099781;28;19958;-80
2022/07/19 14:40:32;;;;;;;;;;;;;;;;;;5115845;28;19916;-80
2022/07/19 14:42:58;;;;;;;;;;;;;;;;;;5116983;28;19916;-80
2022/07/19 14:45:23;;;;;;;;;;;;;;;;;;5098721;28;19938;-80
2022/07/19 14:47:48;;;;;;;;;;;;;;;;;;5117208;28;19912;-79
2022/07/19 14:50:13;;;;;;;;;;;;;;;;;;5115538;28;19916;-79
2022/07/19 14:52:39;;;;;;;;;;;;;;;;;;5115422;28;19944;-79
2022/07/19 14:55:05;;;;;;;;;;;;;;;;;;5098459;28;20387;-80
2022/07/19 14:57:31;;;;;;;;;;;;;;;;;;5116351;28;19916;-79
2022/07/19 14:59:56;;;;;;;;;;;;;;;;;;5116520;28;19924;-79
2022/07/19 15:02:21;;;;;;;;;;;;;;;;;;5098376;28;19916;-80
2022/07/19 15:04:46;;;;;;;;;;;;;;;;;;5116795;28;20010;-79
2022/07/19 15:07:12;;;;;;;;;;;;;;;;;;5115666;28;19915;-80
2022/07/19 15:09:37;;;;;;;;;;;;;;;;;;5115686;28;20010;-80
2022/07/19 15:12:03;;;;;;;;;;;;;;;;;;5116503;28;19991;-81
2022/07/19 15:14:32;;;;;;;;;;;;;;;;;;5115198;28;20373;-79
2022/07/19 15:16:58;;;;;;;;;;;;;;;;;;5115362;28;19912;-79
2022/07/19 15:19:23;;;;;;;;;;;;;;;;;;5098265;28;19960;-79
2022/07/19 15:21:48;;;;;;;;;;;;;;;;;;5115655;28;19928;-79
2022/07/19 15:24:13;;;;;;;;;;;;;;;;;;5115328;28;20455;-78
2022/07/19 15:26:39;;;;;;;;;;;;;;;;;;5117313;28;20324;-78
2022/07/19 15:29:04;;;;;;;;;;;;;;;;;;5117063;28;19915;-78
2022/07/19 15:31:29;;;;;;;;;;;;;;;;;;5116438;28;19920;-78
2022/07/19 15:33:54;;;;;;;;;;;;;;;;;;5114789;28;19962;-78
2022/07/19 15:36:20;;;;;;;;;;;;;;;;;;5114677;28;19916;-77
2022/07/19 15:38:45;;;;;;;;;;;;;;;;;;5097516;28;19915;-77
2022/07/19 15:41:10;;;;;;;;;;;;;;;;;;5114438;28;19923;-78
2022/07/19 15:43:35;;;;;;;;;;;;;;;;;;5116126;28;19916;-77
2022/07/19 15:46:01;;;;;;;;;;;;;;;;;;5114715;28;19958;-77
2022/07/19 15:48:26;;;;;;;;;;;;;;;;;;5115829;28;20337;-78
2022/07/19 15:50:51;;;;;;;;;;;;;;;;;;5114713;28;19919;-78
2022/07/19 15:53:16;;;;;;;;;;;;;;;;;;5115734;28;20080;-78
2022/07/19 15:55:42;;;;;;;;;;;;;;;;;;5114291;28;19916;-78
2022/07/19 15:58:07;;;;;;;;;;;;;;;;;;5115778;28;19926;-77
2022/07/19 16:00:33;;;;;;;;;;;;;;;;;;5115329;28;19924;-77
2022/07/19 16:02:58;;;;;;;;;;;;;;;;;;5115724;28;19923;-76
2022/07/19 16:05:24;;;;;;;;;;;;;;;;;;5114263;28;19912;-77
2022/07/19 16:07:49;;;;;;;;;;;;;;;;;;5097980;28;19958;-76
2022/07/19 16:10:15;;;;;;;;;;;;;;;;;;5115583;28;20394;-77
2022/07/19 16:12:40;;;;;;;;;;;;;;;;;;5115513;28;19916;-77
2022/07/19 16:15:06;;;;;;;;;;;;;;;;;;5115141;28;20003;-77
2022/07/19 16:17:31;;;;;;;;;;;;;;;;;;5113910;28;20388;-77
2022/07/19 16:19:57;;;;;;;;;;;;;;;;;;5115509;28;19920;-77
2022/07/19 16:22:23;;;;;;;;;;;;;;;;;;5097459;28;19911;-77
2022/07/19 16:24:48;;;;;;;;;;;;;;;;;;5119479;28;20006;-77
2022/07/19 16:27:13;;;;;;;;;;;;;;;;;;5115560;28;20006;-78
2022/07/19 16:29:38;;;;;;;;;;;;;;;;;;5113916;28;19912;-78
2022/07/19 16:32:04;;;;;;;;;;;;;;;;;;5112944;28;19916;-79
2022/07/19 16:34:29;;;;;;;;;;;;;;;;;;5114817;28;19919;-79
2022/07/19 16:36:54;;;;;;;;;;;;;;;;;;5115284;28;19969;-79
2022/07/19 16:39:20;;;;;;;;;;;;;;;;;;5113796;28;19919;-79
2022/07/19 16:41:45;;;;;;;;;;;;;;;;;;5113582;28;19926;-78